createdAt,value
2023-05-03T00:02:10.433Z,3.53
2023-05-03T00:04:37.549Z,3.63
2023-05-03T00:07:04.761Z,3.67
2023-05-03T00:09:33.434Z,3.65
2023-05-03T00:12:01.259Z,3.83
2023-05-03T00:14:28.554Z,3.45
2023-05-03T00:16:55.736Z,3.58
2023-05-03T00:19:31.568Z,4.28
2023-05-03T00:21:59.543Z,4.13
2023-05-03T00:24:27.160Z,4.30
2023-05-03T00:26:53.977Z,3.65
2023-05-03T00:29:22.883Z,3.60
2023-05-03T00:31:49.724Z,3.95
2023-05-03T00:34:16.645Z,3.72
2023-05-03T00:36:43.391Z,3.88
2023-05-03T00:39:10.648Z,3.50
2023-05-03T00:41:38.905Z,3.38
2023-05-03T00:44:06.012Z,3.63
2023-05-03T00:46:32.752Z,4.05
2023-05-03T00:48:59.432Z,4.13
2023-05-03T00:51:28.012Z,4.05
2023-05-03T00:53:55.057Z,3.65
2023-05-03T00:56:23.579Z,4.00
2023-05-03T00:58:53.509Z,4.65
2023-05-03T01:01:20.359Z,4.47
2023-05-03T01:03:48.198Z,4.35
2023-05-03T01:39:22.988Z,4.00
2023-05-03T01:41:51.719Z,4.00
2023-05-03T01:44:19.475Z,3.92
2023-05-03T01:46:47.104Z,4.32
2023-05-03T01:49:13.965Z,4.47
2023-05-03T01:51:40.770Z,3.88
2023-05-03T01:54:07.812Z,4.25
2023-05-03T01:56:36.658Z,4.22
2023-05-03T01:59:04.098Z,4.35
2023-05-03T02:01:31.035Z,4.70
2023-05-03T02:03:57.840Z,4.40
2023-05-03T02:06:26.148Z,4.20
2023-05-03T02:08:54.424Z,4.15
2023-05-03T02:11:21.729Z,4.20
2023-05-03T02:13:50.708Z,4.15
2023-05-03T02:16:20.982Z,4.10
2023-05-03T02:18:48.452Z,4.47
2023-05-03T02:21:15.378Z,5.10
2023-05-03T02:23:42.132Z,4.28
2023-05-03T02:26:08.828Z,4.72
2023-05-03T02:28:35.828Z,4.88
2023-05-03T02:31:02.862Z,4.55
2023-05-03T02:33:29.702Z,4.40
2023-05-03T02:35:56.581Z,4.35
2023-05-03T02:38:23.842Z,4.50
2023-05-03T02:40:50.828Z,4.75
2023-05-03T02:43:17.611Z,5.00
2023-05-03T02:45:44.622Z,4.57
2023-05-03T02:48:11.370Z,4.85
2023-05-03T02:50:39.307Z,4.90
2023-05-03T02:53:06.133Z,4.60
2023-05-03T02:55:32.952Z,4.75
2023-05-03T02:58:00.123Z,5.00
2023-05-03T03:00:27.045Z,4.70
2023-05-03T03:02:53.907Z,4.63
2023-05-03T03:05:20.968Z,5.20
2023-05-03T03:07:47.775Z,4.45
2023-05-03T03:10:14.662Z,5.05
2023-05-03T03:12:41.505Z,5.63
2023-05-03T03:15:09.133Z,4.72
2023-05-03T03:17:39.377Z,4.88
2023-05-03T03:20:07.905Z,5.30
2023-05-03T03:22:34.836Z,7.88
2023-05-03T03:25:01.679Z,5.60
2023-05-03T03:27:28.675Z,5.25
2023-05-03T03:29:55.498Z,5.20
2023-05-03T03:32:22.752Z,4.90
2023-05-03T03:34:49.702Z,4.93
2023-05-03T03:37:16.673Z,5.32
2023-05-03T03:39:43.517Z,4.97
2023-05-03T03:42:13.201Z,5.10
2023-05-03T03:44:40.111Z,4.88
2023-05-03T03:47:07.257Z,5.35
2023-05-03T03:49:34.093Z,5.45
2023-05-03T03:52:00.951Z,5.80
2023-05-03T03:54:27.823Z,5.10
2023-05-03T03:56:54.663Z,5.60
2023-05-03T03:59:21.434Z,5.53
2023-05-03T04:01:48.169Z,5.65
2023-05-03T04:04:15.037Z,6.10
2023-05-03T04:06:42.007Z,6.82
2023-05-03T04:09:09.205Z,7.38
2023-05-03T04:11:36.113Z,6.80
2023-05-03T04:14:03.684Z,6.32
2023-05-03T04:16:30.542Z,5.80
2023-05-03T04:18:57.375Z,5.65
2023-05-03T04:21:24.355Z,5.50
2023-05-03T04:23:51.169Z,5.15
2023-05-03T04:26:30.735Z,5.72
2023-05-03T04:28:59.230Z,6.40
2023-05-03T04:31:27.076Z,5.50
2023-05-03T04:33:53.944Z,5.47
2023-05-03T04:36:25.580Z,5.40
2023-05-03T04:38:52.636Z,5.22
2023-05-03T04:41:19.400Z,5.40
2023-05-03T04:43:46.357Z,5.63
2023-05-03T04:46:13.142Z,5.88
2023-05-03T04:48:40.394Z,5.45
2023-05-03T04:51:07.728Z,5.72
2023-05-03T04:53:34.650Z,5.75
2023-05-03T04:56:01.442Z,5.35
2023-05-03T04:58:28.370Z,6.10
2023-05-03T05:00:55.568Z,5.55
2023-05-03T05:03:22.457Z,6.07
2023-05-03T05:05:49.380Z,5.68
2023-05-03T05:08:16.250Z,5.43
2023-05-03T05:10:43.481Z,5.43
2023-05-03T05:13:13.468Z,6.00
2023-05-03T05:15:40.222Z,5.70
2023-05-03T05:18:07.299Z,4.85
2023-05-03T05:20:34.351Z,6.10
2023-05-03T05:23:01.299Z,5.25
2023-05-03T05:25:28.121Z,4.97
2023-05-03T05:27:54.905Z,5.28
2023-05-03T05:30:23.452Z,5.30
2023-05-03T05:32:50.452Z,4.78
2023-05-03T05:35:19.118Z,5.28
2023-05-03T05:37:46.446Z,5.10
2023-05-03T05:40:13.557Z,4.60
2023-05-03T05:42:40.490Z,4.38
2023-05-03T05:45:08.403Z,4.57
2023-05-03T05:47:35.718Z,4.90
2023-05-03T05:50:09.731Z,4.20
2023-05-03T05:52:42.344Z,4.50
2023-05-03T05:55:10.909Z,4.43
2023-05-03T05:57:38.218Z,4.72
2023-05-03T06:00:14.251Z,4.93
2023-05-03T06:02:42.254Z,4.63
2023-05-03T06:05:10.073Z,4.63
2023-05-03T06:07:37.197Z,4.25
2023-05-03T06:10:04.969Z,4.90
2023-05-03T06:12:31.947Z,4.53
2023-05-03T06:15:02.735Z,4.38
2023-05-03T06:17:29.982Z,4.47
2023-05-03T06:19:57.894Z,4.50
2023-05-03T06:22:25.332Z,4.63
2023-05-03T06:24:52.817Z,4.43
2023-05-03T06:27:19.730Z,4.53
2023-05-03T06:29:48.060Z,4.57
2023-05-03T06:32:14.817Z,4.47
2023-05-03T06:34:41.569Z,5.00
2023-05-03T06:37:08.407Z,4.30
2023-05-03T06:39:35.169Z,4.35
2023-05-03T06:42:02.683Z,4.78
2023-05-03T06:44:29.473Z,4.13
2023-05-03T06:46:56.340Z,4.72
2023-05-03T06:49:23.133Z,4.60
2023-05-03T06:51:49.927Z,4.82
2023-05-03T06:54:16.724Z,4.40
2023-05-03T06:56:43.487Z,4.05
2023-05-03T06:59:10.645Z,5.35
2023-05-03T07:01:37.573Z,4.70
2023-05-03T07:04:04.497Z,4.50
2023-05-03T07:06:37.784Z,4.13
2023-05-03T07:09:11.562Z,4.20
2023-05-03T07:11:40.305Z,4.55
2023-05-03T07:14:07.249Z,4.70
2023-05-03T07:16:34.116Z,4.40
2023-05-03T07:19:01.041Z,4.72
2023-05-03T07:21:29.299Z,3.88
2023-05-03T07:23:56.013Z,4.75
2023-05-03T07:26:22.916Z,4.45
2023-05-03T07:28:50.279Z,4.40
2023-05-03T07:31:17.061Z,4.50
2023-05-03T07:33:44.225Z,4.30
2023-05-03T07:36:12.077Z,4.72
2023-05-03T07:38:38.877Z,4.15
2023-05-03T07:41:06.811Z,4.32
2023-05-03T07:43:33.748Z,4.07
2023-05-03T07:46:00.579Z,4.10
2023-05-03T07:48:27.455Z,4.30
2023-05-03T07:50:54.435Z,4.30
2023-05-03T07:53:21.680Z,4.35
2023-05-03T07:55:48.460Z,4.43
2023-05-03T07:58:15.227Z,4.82
2023-05-03T08:00:42.692Z,4.50
2023-05-03T08:03:09.661Z,4.65
2023-05-03T08:05:36.753Z,4.47
2023-05-03T08:08:06.648Z,18.58
2023-05-03T08:10:37.738Z,4.60
2023-05-03T08:13:06.300Z,4.28
2023-05-03T08:15:33.850Z,4.07
2023-05-03T08:18:01.104Z,4.13
2023-05-03T08:20:28.020Z,4.30
2023-05-03T08:22:56.878Z,4.40
2023-05-03T08:25:26.180Z,4.60
2023-05-03T08:27:53.271Z,4.68
2023-05-03T08:30:22.017Z,3.97
2023-05-03T08:32:49.029Z,5.28
2023-05-03T08:35:15.876Z,4.15
2023-05-03T08:37:43.459Z,4.35
2023-05-03T08:40:13.792Z,4.00
2023-05-03T08:42:45.190Z,4.22
2023-05-03T08:45:16.353Z,4.38
2023-05-03T08:47:47.266Z,4.22
2023-05-03T08:50:15.510Z,4.25
2023-05-03T08:52:43.411Z,4.18
2023-05-03T08:55:11.659Z,4.60
2023-05-03T08:57:38.446Z,4.30
2023-05-03T09:00:10.628Z,4.00
2023-05-03T09:02:40.874Z,3.97
2023-05-03T09:33:56.114Z,4.30
2023-05-03T09:36:27.725Z,6.28
2023-05-03T09:39:32.405Z,4.03
2023-05-03T09:42:00.417Z,4.15
2023-05-03T09:44:51.429Z,4.30
2023-05-03T09:47:25.911Z,3.70
2023-05-03T09:49:52.968Z,4.13
2023-05-03T09:52:21.914Z,4.43
2023-05-03T09:54:50.188Z,4.45
2023-05-03T09:57:17.508Z,4.13
2023-05-03T09:59:46.042Z,4.50
2023-05-03T10:02:12.945Z,4.05
2023-05-03T10:04:51.767Z,4.28
2023-05-03T10:07:22.118Z,4.30
2023-05-03T10:09:49.286Z,4.05
2023-05-03T10:12:19.021Z,3.90
2023-05-03T10:14:48.263Z,3.90
2023-05-03T10:17:46.317Z,3.92
2023-05-03T10:20:23.280Z,4.22
2023-05-03T10:23:05.725Z,4.00
2023-05-03T10:25:34.720Z,4.18
2023-05-03T10:28:09.222Z,3.78
2023-05-03T10:30:40.703Z,3.88
2023-05-03T10:33:10.250Z,4.05
2023-05-03T10:35:39.771Z,3.90
2023-05-03T10:38:22.360Z,3.67
2023-05-03T10:40:49.201Z,3.70
2023-05-03T10:43:31.717Z,3.75
2023-05-03T10:46:05.550Z,3.80
2023-05-03T10:48:34.083Z,4.13
2023-05-03T10:51:30.699Z,4.40
2023-05-03T10:53:57.584Z,3.50
2023-05-03T10:56:24.564Z,4.20
2023-05-03T10:58:56.039Z,4.15
2023-05-03T11:01:24.972Z,3.75
2023-05-03T11:03:51.749Z,3.80
2023-05-03T11:06:41.364Z,4.10
2023-05-03T11:09:10.395Z,3.60
2023-05-03T11:11:40.365Z,3.65
2023-05-03T11:14:08.782Z,3.72
2023-05-03T11:16:47.122Z,4.10
2023-05-03T11:19:15.153Z,4.22
2023-05-03T11:21:43.490Z,3.00
2023-05-03T11:24:10.512Z,3.00
2023-05-03T11:26:38.547Z,3.35
2023-05-03T11:29:05.950Z,3.60
2023-05-03T11:31:33.145Z,3.65
2023-05-03T11:34:00.148Z,4.05
2023-05-03T11:36:27.996Z,3.47
2023-05-03T11:38:54.968Z,3.08
2023-05-03T11:41:21.907Z,3.00
2023-05-03T11:43:57.484Z,3.45
2023-05-03T11:46:35.327Z,3.70
2023-05-03T11:49:06.281Z,3.22
2023-05-03T11:51:33.400Z,3.70
2023-05-03T11:54:13.503Z,3.17
2023-05-03T11:56:57.881Z,3.60
2023-05-03T11:59:44.642Z,4.00
2023-05-03T12:04:43.537Z,3.80
2023-05-03T12:07:13.143Z,3.88
2023-05-03T12:09:42.080Z,3.20
2023-05-03T12:14:59.340Z,3.00
2023-05-03T12:17:43.565Z,3.30
2023-05-03T12:20:51.808Z,2.92
2023-05-03T12:23:11.736Z,3.80
2023-05-03T12:25:43.889Z,3.80
2023-05-03T12:30:41.297Z,3.33
2023-05-03T12:33:10.030Z,3.08
2023-05-03T12:35:41.030Z,2.88
2023-05-03T12:38:09.872Z,2.92
2023-05-03T12:40:39.119Z,2.50
2023-05-03T12:43:06.748Z,2.80
2023-05-03T12:45:34.568Z,2.95
2023-05-03T12:48:02.772Z,2.67
2023-05-03T12:50:32.060Z,2.33
2023-05-03T12:53:02.400Z,3.00
2023-05-03T12:55:35.184Z,2.95
2023-05-03T12:58:36.826Z,2.78
2023-05-03T13:01:37.107Z,2.90
2023-05-03T13:03:43.361Z,2.30
2023-05-03T13:06:13.869Z,3.00
2023-05-03T13:08:49.404Z,3.28
2023-05-03T13:11:19.408Z,2.78
2023-05-03T13:13:46.646Z,1.65
2023-05-03T13:16:14.437Z,2.95
2023-05-03T13:18:43.015Z,3.05
2023-05-03T13:21:11.172Z,3.10
2023-05-03T13:23:38.351Z,2.72
2023-05-03T13:26:07.047Z,3.22
2023-05-03T13:28:34.113Z,2.90
2023-05-03T13:31:00.878Z,3.10
2023-05-03T13:33:28.625Z,2.97
2023-05-03T13:35:55.665Z,2.70
2023-05-03T13:38:22.455Z,2.05
2023-05-03T13:40:49.287Z,2.50
2023-05-03T13:43:16.156Z,2.60
2023-05-03T13:45:43.089Z,2.80
2023-05-03T13:48:18.317Z,3.28
2023-05-03T13:53:12.695Z,2.58
2023-05-03T13:55:39.489Z,2.42
2023-05-03T13:58:06.194Z,2.38
2023-05-03T14:00:33.032Z,2.25
2023-05-03T14:02:59.833Z,2.13
2023-05-03T14:05:27.236Z,2.17
2023-05-03T14:07:54.228Z,2.42
2023-05-03T14:10:21.111Z,3.13
2023-05-03T14:12:48.142Z,2.55
2023-05-03T14:15:15.044Z,2.50
2023-05-03T14:17:43.900Z,2.83
2023-05-03T14:20:12.095Z,2.97
2023-05-03T14:22:38.953Z,2.80
2023-05-03T14:25:06.750Z,2.70
2023-05-03T14:27:33.737Z,2.75
2023-05-03T14:30:00.677Z,2.47
2023-05-03T14:32:27.875Z,2.70
2023-05-03T14:34:54.568Z,2.40
2023-05-03T14:37:21.443Z,2.40
2023-05-03T14:39:48.374Z,2.78
2023-05-03T14:42:15.423Z,3.10
2023-05-03T14:44:42.221Z,2.50
2023-05-03T14:47:10.326Z,2.63
2023-05-03T14:49:41.017Z,2.50
2023-05-03T14:52:08.860Z,2.65
2023-05-03T14:54:37.260Z,2.75
2023-05-03T14:57:04.810Z,2.42
2023-05-03T14:59:33.254Z,2.30
2023-05-03T15:02:00.858Z,2.47
2023-05-03T15:04:28.399Z,2.30
2023-05-03T15:06:55.571Z,2.30
2023-05-03T15:09:22.885Z,2.40
2023-05-03T15:11:49.740Z,2.10
2023-05-03T15:14:17.545Z,2.13
2023-05-03T15:16:44.577Z,2.30
2023-05-03T15:19:11.433Z,2.42
2023-05-03T15:21:49.409Z,2.40
2023-05-03T15:24:17.530Z,2.35
2023-05-03T15:26:44.541Z,2.38
2023-05-03T15:29:11.558Z,2.80
2023-05-03T15:31:38.479Z,2.83
2023-05-03T15:34:06.073Z,2.25
2023-05-03T15:36:33.431Z,3.05
2023-05-03T15:39:00.185Z,2.58
2023-05-03T15:41:27.053Z,2.72
2023-05-03T15:43:54.848Z,2.40
2023-05-03T15:46:21.960Z,2.00
2023-05-03T15:48:48.766Z,2.10
2023-05-03T15:51:15.710Z,1.92
2023-05-03T15:53:42.612Z,2.40
2023-05-03T15:56:09.415Z,2.40
2023-05-03T15:58:36.669Z,2.30
2023-05-03T16:01:04.177Z,2.30
2023-05-03T16:03:31.633Z,2.20
2023-05-03T16:05:58.668Z,2.17
2023-05-03T16:08:26.351Z,2.35
2023-05-03T16:10:53.193Z,2.08
2023-05-03T16:13:19.959Z,1.98
2023-05-03T16:15:47.344Z,2.13
2023-05-03T16:18:14.206Z,2.17
2023-05-03T16:20:41.365Z,2.05
2023-05-03T16:23:08.185Z,2.03
2023-05-03T16:25:34.899Z,2.15
2023-05-03T16:28:02.749Z,2.00
2023-05-03T16:30:29.737Z,1.80
2023-05-03T16:32:56.582Z,2.15
2023-05-03T16:35:23.401Z,1.92
2023-05-03T16:37:51.290Z,1.83
2023-05-03T16:40:18.155Z,1.70
2023-05-03T16:42:44.984Z,2.17
2023-05-03T16:45:12.255Z,2.20
2023-05-03T16:47:39.594Z,2.05
2023-05-03T16:50:08.137Z,1.90
2023-05-03T16:52:39.393Z,2.80
2023-05-03T16:55:07.728Z,2.20
2023-05-03T16:57:34.534Z,2.10
2023-05-03T17:00:08.495Z,1.88
2023-05-03T17:02:36.944Z,2.10
2023-05-03T17:05:12.951Z,1.60
2023-05-03T17:07:41.850Z,2.08
2023-05-03T17:10:09.197Z,1.98
2023-05-03T17:12:36.091Z,2.08
2023-05-03T17:15:03.086Z,1.98
2023-05-03T17:17:32.378Z,1.90
2023-05-03T17:19:59.638Z,1.98
2023-05-03T17:22:26.470Z,1.63
2023-05-03T17:24:55.237Z,1.80
2023-05-03T17:27:22.104Z,1.80
2023-05-03T17:29:49.206Z,1.80
2023-05-03T17:32:16.041Z,1.77
2023-05-03T17:34:42.863Z,1.90
2023-05-03T17:37:09.563Z,1.70
2023-05-03T17:39:36.262Z,2.03
2023-05-03T17:42:03.843Z,1.63
2023-05-03T17:44:30.992Z,1.90
2023-05-03T17:46:57.794Z,1.63
2023-05-03T17:49:24.860Z,1.73
2023-05-03T17:51:51.668Z,2.00
2023-05-03T17:54:18.394Z,1.80
2023-05-03T17:56:45.469Z,1.83
2023-05-03T17:59:12.174Z,1.80
2023-05-03T18:01:38.910Z,1.63
2023-05-03T18:04:05.835Z,1.88
2023-05-03T18:06:33.113Z,1.88
2023-05-03T18:08:59.953Z,1.80
2023-05-03T18:11:26.632Z,2.08
2023-05-03T18:13:53.371Z,4.70
2023-05-03T18:16:20.241Z,4.57
2023-05-03T18:18:47.291Z,2.10
2023-05-03T18:21:14.331Z,2.00
2023-05-03T18:23:42.449Z,2.00
2023-05-03T18:26:10.580Z,1.65
2023-05-03T18:28:37.679Z,1.70
2023-05-03T18:31:04.655Z,1.80
2023-05-03T18:33:32.875Z,1.90
2023-05-03T18:35:59.664Z,1.75
2023-05-03T18:38:26.899Z,2.00
2023-05-03T18:40:55.845Z,1.67
2023-05-03T18:43:22.865Z,2.10
2023-05-03T18:45:49.852Z,2.00
2023-05-03T18:48:17.088Z,3.92
2023-05-03T18:50:44.161Z,12.55
2023-05-03T18:53:11.320Z,2.00
2023-05-03T18:55:38.311Z,2.00
2023-05-03T18:58:05.634Z,2.00
2023-05-03T19:00:32.492Z,2.10
2023-05-03T19:02:59.356Z,1.65
2023-05-03T19:05:26.203Z,2.00
2023-05-03T19:07:52.898Z,1.92
2023-05-03T19:10:20.916Z,2.03
2023-05-03T19:12:47.734Z,2.15
2023-05-03T19:15:15.099Z,1.90
2023-05-03T19:17:42.182Z,2.33
2023-05-03T19:20:10.316Z,2.13
2023-05-03T19:22:37.459Z,2.15
2023-05-03T19:25:05.403Z,2.30
2023-05-03T19:27:32.791Z,2.20
2023-05-03T19:29:59.661Z,1.90
2023-05-03T19:32:26.522Z,5.78
2023-05-03T19:34:53.336Z,3.15
2023-05-03T19:37:20.174Z,2.63
2023-05-03T19:39:47.057Z,2.45
2023-05-03T19:42:13.854Z,3.95
2023-05-03T19:44:40.640Z,2.15
2023-05-03T19:47:07.420Z,2.33
2023-05-03T19:49:34.245Z,2.30
2023-05-03T19:52:02.070Z,2.42
2023-05-03T19:54:29.834Z,2.15
2023-05-03T19:56:56.708Z,2.35
2023-05-03T19:59:23.492Z,2.35
2023-05-03T20:01:50.484Z,2.25
2023-05-03T20:04:17.575Z,2.47
2023-05-03T20:06:44.465Z,2.30
2023-05-03T20:09:11.315Z,2.25
2023-05-03T20:11:38.509Z,2.22
2023-05-03T20:14:05.375Z,2.25
2023-05-03T20:16:37.298Z,2.47
2023-05-03T20:19:07.295Z,1.92
2023-05-03T20:21:34.157Z,1.90
2023-05-03T20:24:01.346Z,1.85
2023-05-03T20:26:28.165Z,2.28
2023-05-03T20:28:54.869Z,1.80
2023-05-03T20:31:21.687Z,1.70
2023-05-03T20:33:48.529Z,1.80
2023-05-03T20:36:15.375Z,2.10
2023-05-03T20:38:42.272Z,1.77
2023-05-03T20:41:09.384Z,1.88
2023-05-03T20:43:36.146Z,1.90
2023-05-03T20:46:03.035Z,1.77
2023-05-03T20:48:29.927Z,2.35
2023-05-03T20:50:58.813Z,2.47
2023-05-03T20:53:25.640Z,2.05
2023-05-03T20:56:00.809Z,2.17
2023-05-03T20:58:27.936Z,1.77
2023-05-03T21:00:58.012Z,2.20
2023-05-03T21:03:25.854Z,2.10
2023-05-03T21:05:53.621Z,1.85
2023-05-03T21:08:20.705Z,2.17
2023-05-03T21:10:47.551Z,1.75
2023-05-03T21:13:14.543Z,1.80
2023-05-03T21:15:42.495Z,2.25
2023-05-03T21:18:10.508Z,2.33
2023-05-03T21:20:37.828Z,2.38
2023-05-03T21:23:05.197Z,1.90
2023-05-03T21:25:31.981Z,2.15
2023-05-03T21:27:58.860Z,2.35
2023-05-03T21:30:25.700Z,2.15
2023-05-03T21:32:52.499Z,2.28
2023-05-03T21:35:20.465Z,2.20
2023-05-03T21:37:48.141Z,2.03
2023-05-03T21:40:15.774Z,2.67
2023-05-03T21:42:43.363Z,1.98
2023-05-03T21:45:12.005Z,2.30
2023-05-03T21:47:38.965Z,2.13
2023-05-03T21:50:06.825Z,2.85
2023-05-03T21:52:34.130Z,2.20
2023-05-03T21:55:01.172Z,2.30
2023-05-03T21:57:28.057Z,2.40
2023-05-03T21:59:58.319Z,2.40
2023-05-03T22:02:25.446Z,2.15
2023-05-03T22:04:52.992Z,2.50
2023-05-03T22:07:19.840Z,2.10
2023-05-03T22:09:47.470Z,13.82
2023-05-03T22:14:45.315Z,2.40
2023-05-03T22:17:12.030Z,2.00
2023-05-03T22:19:38.987Z,1.85
2023-05-03T22:22:05.733Z,2.20
2023-05-03T22:24:32.581Z,2.10
2023-05-03T22:26:59.851Z,2.05
2023-05-03T22:29:26.900Z,1.95
2023-05-03T22:31:53.904Z,2.13
2023-05-03T22:34:21.183Z,2.20
2023-05-03T22:36:47.995Z,2.10
2023-05-03T22:39:15.814Z,1.85
2023-05-03T22:41:42.684Z,2.22
2023-05-03T22:44:09.429Z,2.17
2023-05-03T22:46:36.288Z,2.10
2023-05-03T22:49:03.237Z,2.80
2023-05-03T22:51:30.070Z,1.90
2023-05-03T22:53:56.828Z,2.20
2023-05-03T22:56:24.046Z,2.08
2023-05-03T22:58:50.878Z,2.42
2023-05-03T23:01:18.157Z,2.33
2023-05-03T23:03:45.097Z,2.40
2023-05-03T23:06:11.959Z,2.15
2023-05-03T23:08:38.883Z,2.20
2023-05-03T23:11:05.912Z,2.58
2023-05-03T23:13:32.672Z,2.40
2023-05-03T23:15:59.852Z,2.20
2023-05-03T23:18:27.085Z,2.20
2023-05-03T23:20:53.815Z,2.35
2023-05-03T23:23:20.616Z,3.10
2023-05-03T23:25:47.470Z,2.42
2023-05-03T23:28:14.277Z,2.40
2023-05-03T23:30:45.383Z,2.30
